»·PEaware :: N147AT KSJC-KSBA

N147AT :: KSJC-KSBA

FLIGHT INFORMATION

Flight Status: Arrived
Operator: Privately registered:
United States
More flights under this callsign
Pilot: Anonymous 18613 (18613)
Aircraft: CESSNA 172 SKYHAWK
(C172)
More flights by this aircraft type
Origin: KSJC Mineta San Jose Intl
United States
Destination: KSBA Santa Barbara Mun
United States
More flights between these airports :: More routes between these airports
Route: +
File this flight plan on PilotEdge
Remarks:
Altitude:
(Current/Filed)
0ft
Speed:
(Current/Filed)
0kts
Departed: 09-Sep-18 12:56 PM
Arrived: 09-Sep-18 02:43 PM
Distance/Time
Traveled:
204nm/1:46
Distance/Time
To Go:
Arrived

Flight Plot

Page will automatically refresh every two minutes.

Flight plan parsing failed; only flown route is shown


Map Options




Map Legend


Flown Route
Filed Route
Departure Airport
Arrival Airport
Navaid (VOR, NDB)
Fix

Horizontal Profiles

Position Reports

Time Latitude Longitude Heading Altitude Ground
Speed
09-Sep-18 12:52 37.351637 -121.920755 230 66ft 0kts
09-Sep-18 12:53 37.351637 -121.920755 230 66ft 0kts
09-Sep-18 12:54 37.351637 -121.920755 230 66ft 0kts
09-Sep-18 12:55 37.352041 -121.919985 51 66ft 8kts
09-Sep-18 12:56 37.352163 -121.919789 49 66ft 0kts
09-Sep-18 12:57 37.352948 -121.919221 317 66ft 0kts
09-Sep-18 12:58 37.362035 -121.928855 319 236ft 86kts
09-Sep-18 12:59 37.380218 -121.949287 317 936ft 89kts
09-Sep-18 13:00 37.398813 -121.970064 317 1634ft 89kts
09-Sep-18 13:01 37.416975 -121.990354 317 2331ft 85kts
09-Sep-18 13:02 37.433762 -122.009524 304 3022ft 78kts
09-Sep-18 13:03 37.419324 -122.024758 192 3500ft 93kts
09-Sep-18 13:04 37.388366 -122.033085 192 3521ft 124kts
09-Sep-18 13:05 37.353583 -122.037825 177 3525ft 128kts
09-Sep-18 13:06 37.318088 -122.035995 176 3525ft 128kts
09-Sep-18 13:07 37.285898 -122.017963 143 3530ft 128kts
09-Sep-18 13:08 37.256991 -121.991269 142 3531ft 129kts
09-Sep-18 13:09 37.229047 -121.965030 142 3741ft 116kts
09-Sep-18 13:10 37.205042 -121.941782 142 4234ft 104kts
09-Sep-18 13:11 37.182954 -121.919587 142 4733ft 99kts
09-Sep-18 13:12 37.162048 -121.897882 142 5230ft 96kts
09-Sep-18 13:13 37.143256 -121.873188 131 5550ft 111kts
09-Sep-18 13:14 37.125730 -121.846483 131 5556ft 123kts
09-Sep-18 13:15 37.103685 -121.812836 131 5555ft 126kts
09-Sep-18 13:16 37.077767 -121.773056 131 5554ft 126kts
09-Sep-18 13:17 37.055600 -121.738822 132 5552ft 126kts
09-Sep-18 13:18 37.037219 -121.710363 132 5551ft 126kts
09-Sep-18 13:19 37.010401 -121.683058 146 5546ft 124kts
09-Sep-18 13:20 36.981814 -121.657742 149 5502ft 126kts
09-Sep-18 13:21 36.952218 -121.633968 151 5502ft 127kts
09-Sep-18 13:22 36.921916 -121.610753 151 5506ft 129kts
09-Sep-18 13:23 36.891181 -121.587776 150 5511ft 131kts
09-Sep-18 13:24 36.859642 -121.564515 150 5512ft 132kts
09-Sep-18 13:25 36.827865 -121.541153 149 5511ft 132kts
09-Sep-18 13:26 36.792638 -121.532887 150 5505ft 132kts
09-Sep-18 13:27 36.760469 -121.510429 150 5505ft 132kts
09-Sep-18 13:28 36.729107 -121.486696 144 5505ft 132kts
09-Sep-18 13:29 36.701895 -121.455737 142 5505ft 133kts
09-Sep-18 13:30 36.671718 -121.429120 144 5506ft 133kts
09-Sep-18 13:31 36.641344 -121.402510 145 5508ft 133kts
09-Sep-18 13:32 36.610488 -121.376608 146 5511ft 133kts
09-Sep-18 13:33 36.579567 -121.351161 146 5514ft 133kts
09-Sep-18 13:34 36.549202 -121.326364 147 5510ft 132kts
09-Sep-18 13:35 36.518531 -121.301447 147 5506ft 131kts
09-Sep-18 13:36 36.487872 -121.276606 147 5503ft 131kts
09-Sep-18 13:37 36.457192 -121.251792 147 5500ft 131kts
09-Sep-18 13:38 36.426543 -121.227035 147 5498ft 131kts
09-Sep-18 13:39 36.395751 -121.202189 147 5497ft 131kts
09-Sep-18 13:40 36.365414 -121.177727 147 5546ft 130kts
09-Sep-18 13:41 36.334930 -121.153183 147 5546ft 130kts
09-Sep-18 13:42 36.304392 -121.128618 147 5547ft 131kts
09-Sep-18 13:43 36.273973 -121.104170 147 5548ft 130kts
09-Sep-18 13:44 36.243512 -121.079710 146 5549ft 130kts
09-Sep-18 13:45 36.213228 -121.055416 146 5551ft 129kts
09-Sep-18 13:46 36.183064 -121.031239 146 5553ft 129kts
09-Sep-18 13:47 36.152913 -121.007095 146 5556ft 129kts
09-Sep-18 13:48 36.122889 -120.983078 146 5558ft 128kts
09-Sep-18 13:49 36.093012 -120.959199 146 5560ft 128kts
09-Sep-18 13:50 36.063086 -120.935302 146 5563ft 128kts
09-Sep-18 13:51 36.033270 -120.911518 146 5566ft 127kts
09-Sep-18 13:52 36.003594 -120.887872 146 5569ft 127kts
09-Sep-18 13:53 35.977093 -120.866772 146 5572ft 127kts
09-Sep-18 13:54 35.947260 -120.843346 146 5576ft 127kts
09-Sep-18 13:55 35.917695 -120.819683 146 5580ft 127kts
09-Sep-18 13:56 35.888761 -120.796676 146 5581ft 126kts
09-Sep-18 13:57 35.859054 -120.773157 146 5579ft 126kts
09-Sep-18 13:58 35.829481 -120.749738 146 5576ft 126kts
09-Sep-18 13:59 35.799910 -120.726330 146 5574ft 126kts
09-Sep-18 14:00 35.770264 -120.702878 146 5573ft 126kts
09-Sep-18 14:01 35.740884 -120.678824 145 5571ft 126kts
09-Sep-18 14:02 35.711274 -120.655582 146 5570ft 126kts
09-Sep-18 14:03 35.681475 -120.632360 147 5569ft 126kts
09-Sep-18 14:04 35.651852 -120.609065 146 5568ft 126kts
09-Sep-18 14:05 35.622148 -120.585972 146 5568ft 126kts
09-Sep-18 14:06 35.589791 -120.568798 156 5566ft 127kts
09-Sep-18 14:07 35.557680 -120.551206 154 5566ft 126kts
09-Sep-18 14:08 35.525923 -120.532423 153 5567ft 126kts
09-Sep-18 14:09 35.494405 -120.513096 152 5567ft 127kts
09-Sep-18 14:10 35.462910 -120.493478 152 5569ft 127kts
09-Sep-18 14:11 35.431299 -120.473655 153 5572ft 128kts
09-Sep-18 14:12 35.399639 -120.453749 153 5576ft 128kts
09-Sep-18 14:13 35.367921 -120.433790 154 5582ft 128kts
09-Sep-18 14:14 35.336190 -120.413831 154 5588ft 128kts
09-Sep-18 14:15 35.304429 -120.393861 154 5595ft 128kts
09-Sep-18 14:16 35.272585 -120.373854 154 5602ft 128kts
09-Sep-18 14:17 35.240425 -120.354772 165 5607ft 128kts
09-Sep-18 14:18 35.208674 -120.338554 162 5608ft 128kts
09-Sep-18 14:19 35.175133 -120.324149 164 5606ft 128kts
09-Sep-18 14:20 35.141261 -120.310623 165 5604ft 128kts
09-Sep-18 14:21 35.107307 -120.297529 165 5603ft 128kts
09-Sep-18 14:22 35.073288 -120.284628 165 5602ft 128kts
09-Sep-18 14:23 35.039235 -120.271820 165 5601ft 128kts
09-Sep-18 14:24 35.005123 -120.259310 168 5601ft 128kts
09-Sep-18 14:25 34.973933 -120.238673 155 5601ft 129kts
09-Sep-18 14:26 34.946131 -120.212280 126 5604ft 130kts
09-Sep-18 14:27 34.923889 -120.179514 156 5598ft 128kts
09-Sep-18 14:28 34.895699 -120.156813 141 5599ft 129kts
09-Sep-18 14:29 34.868971 -120.127149 139 5596ft 130kts
09-Sep-18 14:30 34.842914 -120.096991 139 5593ft 129kts
09-Sep-18 14:31 34.816970 -120.066656 139 5591ft 129kts
09-Sep-18 14:32 34.791191 -120.036304 139 5589ft 129kts
09-Sep-18 14:33 34.765536 -120.005976 139 5589ft 128kts
09-Sep-18 14:34 34.734562 -119.987233 160 5585ft 125kts
09-Sep-18 14:35 34.702471 -119.970214 160 5584ft 126kts
09-Sep-18 14:36 34.670275 -119.953452 160 5584ft 126kts
09-Sep-18 14:37 34.637870 -119.936891 160 5584ft 127kts
09-Sep-18 14:38 34.611327 -119.923556 160 5584ft 127kts
09-Sep-18 14:39 34.587038 -119.912722 160 5584ft 122kts
09-Sep-18 14:40 34.555122 -119.899123 160 5583ft 120kts
09-Sep-18 14:41 34.525595 -119.883795 153 5056ft 124kts
09-Sep-18 14:42 34.495797 -119.865251 154 3690ft 119kts
09-Sep-18 14:43 34.464218 -119.850608 170 1842ft 129kts
09-Sep-18 14:44 34.430155 -119.840129 167 42ft 121kts
09-Sep-18 14:45 34.419839 -119.836683 74 17ft 0kts
09-Sep-18 14:46 34.419839 -119.836683 74 17ft 0kts
09-Sep-18 14:47 34.420760 -119.835583 267 17ft 0kts

Navigation Log

Ident Type
Flight plan parsing failed, navigation log unavailable